Terminal Aerodrome Forecast
Issued by NWS Albany, NY

Home | Current Version | Previous Version | Text Only | Print | Product List | Glossary On
Versions: 1 2 3 4 5 6 7 8 9 10 11 12 13 14 15 16 17 18
000
FTUS41 KALY 242333
TAFGFL
TAF
KGFL 242333Z 2500/2524 03006KT P6SM BKN035 OVC045
     FM250300 VRB03KT P6SM OVC035
     FM250700 04004KT 6SM BR VCSH OVC025
     FM250900 VRB03KT P6SM OVC020 PROB30 2509/2510 4SM -DZ BR OVC007
     FM251600 03004KT P6SM SCT025 OVC050=

USA.gov is the U.S. government's official web portal to all federal, state and local government web resources and services.